createdAt,value
2022-09-16T00:00:05.532Z,100219.00
2022-09-16T00:02:54.756Z,100213.19
2022-09-16T00:05:43.204Z,100211.75
2022-09-16T00:08:28.240Z,100212.88
2022-09-16T00:11:13.575Z,100213.22
2022-09-16T00:13:58.957Z,100210.97
2022-09-16T00:16:44.826Z,100214.66
2022-09-16T00:19:29.945Z,100212.03
2022-09-16T00:22:15.249Z,100213.13
2022-09-16T00:25:00.557Z,100219.13
2022-09-16T00:27:47.496Z,100220.66
2022-09-16T00:30:32.545Z,100222.97
2022-09-16T00:33:18.739Z,100225.44
2022-09-16T00:36:04.935Z,100222.63
2022-09-16T00:38:51.084Z,100214.94
2022-09-16T00:41:37.625Z,100215.69
2022-09-16T00:44:41.792Z,100229.56
2022-09-16T00:47:32.989Z,100220.84
2022-09-16T00:50:30.392Z,100224.81
2022-09-16T00:53:17.624Z,100223.50
2022-09-16T00:56:05.410Z,100218.25
2022-09-16T00:58:56.592Z,100217.59
2022-09-16T01:01:44.680Z,100215.75
2022-09-16T01:04:32.658Z,100226.31
2022-09-16T01:07:23.911Z,100223.34
2022-09-16T01:10:09.208Z,100221.47
2022-09-16T01:12:55.425Z,100225.59
2022-09-16T01:15:53.587Z,100227.41
2022-09-16T01:18:42.924Z,100229.88
2022-09-16T01:21:40.888Z,100231.16
2022-09-16T01:24:29.250Z,100224.19
2022-09-16T01:27:24.437Z,100218.09
2022-09-16T01:30:18.754Z,100218.63
2022-09-16T01:33:04.785Z,100214.09
2022-09-16T01:35:56.241Z,100214.84
2022-09-16T01:38:54.534Z,100215.78
2022-09-16T01:41:48.709Z,100210.53
2022-09-16T01:44:33.764Z,100217.09
2022-09-16T01:47:37.821Z,100222.19
2022-09-16T01:50:26.318Z,100215.88
2022-09-16T01:53:19.285Z,100216.94
2022-09-16T01:56:20.295Z,100213.34
2022-09-16T01:59:09.595Z,100217.09
2022-09-16T02:02:03.084Z,100218.22
2022-09-16T02:04:51.075Z,100213.63
2022-09-16T02:07:39.586Z,100217.19
2022-09-16T02:10:28.593Z,100216.16
2022-09-16T02:13:23.285Z,100219.03
2022-09-16T02:16:11.227Z,100204.75
2022-09-16T02:19:02.041Z,100206.84
2022-09-16T02:21:47.496Z,100204.22
2022-09-16T02:24:33.708Z,100204.09
2022-09-16T02:27:20.979Z,100215.63
2022-09-16T02:30:08.690Z,100209.91
2022-09-16T02:32:57.999Z,100207.94
2022-09-16T02:35:44.609Z,100206.09
2022-09-16T02:38:34.104Z,100201.41
2022-09-16T02:41:19.508Z,100201.41
2022-09-16T02:44:05.491Z,100213.34
2022-09-16T02:47:10.480Z,100199.69
2022-09-16T02:49:57.617Z,100199.75
2022-09-16T02:52:50.816Z,100206.03
2022-09-16T02:55:46.314Z,100208.75
2022-09-16T02:58:31.781Z,100219.16
2022-09-16T03:01:17.686Z,100214.28
2022-09-16T03:04:04.413Z,100209.84
2022-09-16T03:06:49.915Z,100209.59
2022-09-16T03:09:37.415Z,100212.41
2022-09-16T03:12:38.477Z,100225.34
2022-09-16T03:15:33.133Z,100214.44
2022-09-16T03:18:32.882Z,100198.97
2022-09-16T03:21:24.603Z,100201.69
2022-09-16T03:24:12.474Z,100195.81
2022-09-16T03:27:03.887Z,100204.25
2022-09-16T03:29:52.737Z,100198.94
2022-09-16T03:32:41.549Z,100195.34
2022-09-16T03:35:29.463Z,100200.78
2022-09-16T03:38:16.581Z,100206.97
2022-09-16T03:41:03.325Z,100208.75
2022-09-16T03:43:55.083Z,100199.44
2022-09-16T03:46:41.538Z,100203.66
2022-09-16T03:49:26.948Z,100209.72
2022-09-16T03:52:12.337Z,100206.59
2022-09-16T03:54:57.609Z,100206.78
2022-09-16T03:57:42.624Z,100217.88
2022-09-16T04:00:29.091Z,100207.13
2022-09-16T04:03:14.364Z,100208.38
2022-09-16T04:05:59.725Z,100200.84
2022-09-16T04:08:45.112Z,100199.53
2022-09-16T04:11:32.008Z,100200.78
2022-09-16T04:14:17.224Z,100199.94
2022-09-16T04:17:02.588Z,100197.50
2022-09-16T04:19:47.635Z,100194.13
2022-09-16T04:22:33.030Z,100195.63
2022-09-16T04:25:18.627Z,100192.84
2022-09-16T04:28:03.658Z,100199.13
2022-09-16T04:30:48.923Z,100195.75
2022-09-16T04:33:35.083Z,100193.03
2022-09-16T04:36:20.617Z,100190.72
2022-09-16T04:39:06.183Z,100188.72
2022-09-16T04:41:51.305Z,100184.25
2022-09-16T04:44:36.292Z,100191.34
2022-09-16T04:47:22.699Z,100178.28
2022-09-16T04:50:08.765Z,100179.75
2022-09-16T04:52:54.275Z,100183.94
2022-09-16T04:55:39.516Z,100166.19
2022-09-16T04:58:24.839Z,100161.84
2022-09-16T05:01:14.018Z,100172.84
2022-09-16T05:04:00.256Z,100178.19
2022-09-16T05:06:45.271Z,100176.19
2022-09-16T05:09:30.437Z,100195.28
2022-09-16T05:12:15.923Z,100191.91
2022-09-16T05:15:01.347Z,100191.22
2022-09-16T05:17:51.175Z,100193.47
2022-09-16T05:20:37.508Z,100179.38
2022-09-16T05:23:23.131Z,100175.44
2022-09-16T05:26:10.501Z,100174.81
2022-09-16T05:28:55.646Z,100177.69
2022-09-16T05:31:41.787Z,100182.56
2022-09-16T05:34:28.594Z,100173.75
2022-09-16T05:37:13.919Z,100164.34
2022-09-16T05:39:59.155Z,100164.47
2022-09-16T05:42:44.230Z,100172.19
2022-09-16T05:45:32.366Z,100169.72
2022-09-16T05:48:18.037Z,100168.06
2022-09-16T05:51:04.826Z,100174.63
2022-09-16T05:53:52.396Z,100174.84
2022-09-16T05:56:37.535Z,100175.69
2022-09-16T05:59:24.029Z,100173.28
2022-09-16T06:02:09.620Z,100181.09
2022-09-16T06:04:54.740Z,100187.28
2022-09-16T06:07:39.722Z,100183.34
2022-09-16T06:10:25.204Z,100197.34
2022-09-16T06:13:10.549Z,100182.88
2022-09-16T06:15:56.186Z,100183.88
2022-09-16T06:18:41.744Z,100183.88
2022-09-16T06:21:27.675Z,100182.44
2022-09-16T06:24:13.863Z,100177.00
2022-09-16T06:26:59.036Z,100165.03
2022-09-16T06:29:44.127Z,100165.31
2022-09-16T06:32:32.415Z,100154.13
2022-09-16T06:35:17.527Z,100157.63
2022-09-16T06:38:03.688Z,100160.59
2022-09-16T06:40:50.360Z,100154.47
2022-09-16T06:43:35.704Z,100154.81
2022-09-16T06:46:22.804Z,100156.59
2022-09-16T06:49:10.833Z,100156.63
2022-09-16T06:51:56.215Z,100149.28
2022-09-16T06:54:41.920Z,100155.47
2022-09-16T06:57:27.180Z,100149.22
2022-09-16T07:00:14.181Z,100158.72
2022-09-16T07:03:01.830Z,100148.25
2022-09-16T07:05:57.755Z,100164.09
2022-09-16T07:08:43.519Z,100167.00
2022-09-16T07:11:28.809Z,100155.41
2022-09-16T07:14:14.332Z,100149.94
2022-09-16T07:17:00.518Z,100169.81
2022-09-16T07:19:45.931Z,100158.16
2022-09-16T07:22:32.209Z,100167.53
2022-09-16T07:25:17.344Z,100157.53
2022-09-16T07:28:03.359Z,100147.13
2022-09-16T07:30:48.809Z,100144.66
2022-09-16T07:33:38.206Z,100135.75
2022-09-16T07:36:27.862Z,100141.81
2022-09-16T07:39:14.606Z,100152.09
2022-09-16T07:42:05.905Z,100162.50
2022-09-16T07:44:51.693Z,100141.00
2022-09-16T07:47:36.998Z,100145.81
2022-09-16T07:50:22.270Z,100145.94
2022-09-16T07:53:07.686Z,100142.03
2022-09-16T07:55:53.603Z,100153.19
2022-09-16T07:58:39.183Z,100147.31
2022-09-16T08:01:24.999Z,100151.81
2022-09-16T08:04:10.376Z,100151.28
2022-09-16T08:06:55.555Z,100139.56
2022-09-16T08:09:45.166Z,100149.41
2022-09-16T08:12:35.585Z,100151.22
2022-09-16T08:15:21.091Z,100152.97
2022-09-16T08:18:06.388Z,100133.06
2022-09-16T08:20:51.613Z,100142.94
2022-09-16T08:23:37.147Z,100149.19
2022-09-16T08:26:22.986Z,100134.38
2022-09-16T08:29:09.830Z,100132.53
2022-09-16T08:31:55.105Z,100136.66
2022-09-16T08:34:40.511Z,100138.34
2022-09-16T08:37:25.684Z,100131.84
2022-09-16T08:40:15.169Z,100141.63
2022-09-16T08:43:08.345Z,100132.94
2022-09-16T08:46:09.542Z,100131.72
2022-09-16T08:49:15.986Z,100124.88
2022-09-16T08:52:03.116Z,100121.56
2022-09-16T08:54:51.504Z,100110.84
2022-09-16T08:57:40.003Z,100136.91
2022-09-16T09:00:25.031Z,100124.22
2022-09-16T09:03:17.350Z,100128.56
2022-09-16T09:06:04.689Z,100122.88
2022-09-16T09:08:55.821Z,100131.03
2022-09-16T09:12:05.247Z,100125.00
2022-09-16T09:14:50.558Z,100128.91
2022-09-16T09:17:51.382Z,100124.00
2022-09-16T09:20:36.377Z,100124.84
2022-09-16T09:23:27.887Z,100109.28
2022-09-16T09:26:18.762Z,100127.84
2022-09-16T09:29:12.120Z,100105.28
2022-09-16T09:31:57.252Z,100114.63
2022-09-16T09:34:42.711Z,100116.59
2022-09-16T09:37:44.009Z,100123.13
2022-09-16T09:40:58.720Z,100105.28
2022-09-16T09:43:51.764Z,100100.91
2022-09-16T09:46:40.131Z,100105.50
2022-09-16T09:49:33.826Z,100104.84
2022-09-16T09:52:22.895Z,100108.09
2022-09-16T09:55:16.455Z,100109.09
2022-09-16T09:58:02.083Z,100103.91
2022-09-16T10:00:48.006Z,100105.13
2022-09-16T10:03:33.126Z,100103.66
2022-09-16T10:06:22.531Z,100100.03
2022-09-16T10:09:12.865Z,100088.44
2022-09-16T10:11:57.924Z,100075.91
2022-09-16T10:14:46.120Z,100095.38
2022-09-16T10:17:32.271Z,100075.16
2022-09-16T10:20:24.556Z,100087.41
2022-09-16T10:23:14.512Z,100094.13
2022-09-16T10:26:18.441Z,100083.72
2022-09-16T10:29:13.445Z,100089.16
2022-09-16T10:32:04.073Z,100093.41
2022-09-16T10:34:49.744Z,100090.03
2022-09-16T10:37:36.451Z,100089.69
2022-09-16T10:40:23.926Z,100087.13
2022-09-16T10:43:14.507Z,100082.78
2022-09-16T10:46:00.333Z,100080.94
2022-09-16T10:48:46.662Z,100064.94
2022-09-16T10:51:33.368Z,100061.97
2022-09-16T10:54:23.829Z,100062.38
2022-09-16T10:57:20.827Z,100050.09
2022-09-16T11:00:19.834Z,100052.56
2022-09-16T11:03:23.900Z,100047.03
2022-09-16T11:06:24.677Z,100050.13
2022-09-16T11:09:09.671Z,100052.50
2022-09-16T11:12:14.580Z,100037.88
2022-09-16T11:15:19.174Z,100043.31
2022-09-16T11:18:22.762Z,100035.94
2022-09-16T11:21:07.784Z,100027.03
2022-09-16T11:24:10.046Z,100030.19
2022-09-16T11:27:01.880Z,100030.75
2022-09-16T11:30:05.664Z,100028.19
2022-09-16T11:33:09.675Z,100021.78
2022-09-16T11:36:03.861Z,100012.09
2022-09-16T11:39:09.025Z,100028.13
2022-09-16T11:41:59.954Z,100022.88
2022-09-16T11:44:48.061Z,100027.41
2022-09-16T11:47:46.081Z,100034.91
2022-09-16T11:50:41.415Z,100074.38
2022-09-16T11:53:38.316Z,100098.63
2022-09-16T11:56:35.176Z,100092.94
2022-09-16T11:59:38.851Z,100116.69
2022-09-16T12:02:27.250Z,100126.38
2022-09-16T12:05:21.445Z,100108.28
2022-09-16T12:08:12.334Z,100093.88
2022-09-16T12:11:00.500Z,100084.34
2022-09-16T12:13:49.198Z,100074.94
2022-09-16T12:16:40.885Z,100077.88
2022-09-16T12:19:32.061Z,100075.97
2022-09-16T12:22:31.209Z,100075.47
2022-09-16T12:25:25.110Z,100055.97
2022-09-16T12:28:17.477Z,100040.31
2022-09-16T12:31:25.159Z,100031.69
2022-09-16T12:34:28.166Z,100026.00
2022-09-16T12:37:18.954Z,100020.44
2022-09-16T12:40:04.989Z,100028.38
2022-09-16T12:42:56.480Z,100025.72
2022-09-16T12:46:00.287Z,100046.94
2022-09-16T12:49:04.045Z,100064.41
2022-09-16T12:52:01.038Z,100060.72
2022-09-16T12:55:07.242Z,100057.84
2022-09-16T12:58:07.435Z,100045.38
2022-09-16T13:00:58.646Z,100038.81
2022-09-16T13:03:58.082Z,100023.56
2022-09-16T13:06:55.886Z,100016.31
2022-09-16T13:09:41.507Z,100007.44
2022-09-16T13:12:44.882Z,100017.88
2022-09-16T13:15:34.391Z,100027.31
2022-09-16T13:18:37.366Z,100028.94
2022-09-16T13:21:27.604Z,100038.41
2022-09-16T13:24:21.457Z,100050.06
2022-09-16T13:27:27.479Z,100041.94
2022-09-16T13:30:14.254Z,100032.72
2022-09-16T13:33:01.147Z,100022.06
2022-09-16T13:35:49.438Z,100008.44
2022-09-16T13:38:36.684Z,99990.34
2022-09-16T13:41:35.997Z,99990.31
2022-09-16T13:44:39.664Z,99987.72
2022-09-16T13:47:34.179Z,99993.75
2022-09-16T13:50:22.773Z,99982.34
2022-09-16T13:53:26.364Z,99970.75
2022-09-16T13:56:30.396Z,99974.56
2022-09-16T13:59:18.262Z,99963.44
2022-09-16T14:02:13.086Z,99964.75
2022-09-16T14:05:17.238Z,99958.94
2022-09-16T14:08:08.415Z,99966.50
2022-09-16T14:11:01.912Z,99960.41
2022-09-16T14:14:04.845Z,99956.78
2022-09-16T14:16:52.929Z,99956.25
2022-09-16T14:19:38.704Z,99948.16
2022-09-16T14:22:26.778Z,99950.94
2022-09-16T14:25:32.282Z,99957.47
2022-09-16T14:28:25.124Z,99959.63
2022-09-16T14:31:14.550Z,99971.72
2022-09-16T14:34:04.342Z,99974.59
2022-09-16T14:36:49.837Z,99981.19
2022-09-16T14:39:44.474Z,99979.19
2022-09-16T14:42:30.294Z,99976.88
2022-09-16T14:45:16.916Z,99985.59
2022-09-16T14:48:05.664Z,99976.81
2022-09-16T14:50:50.960Z,99972.47
2022-09-16T14:53:38.389Z,99967.69
2022-09-16T14:56:24.074Z,99974.69
2022-09-16T14:59:13.870Z,99976.81
2022-09-16T15:02:03.894Z,99968.59
2022-09-16T15:04:52.369Z,99966.44
2022-09-16T15:07:56.287Z,99960.56
2022-09-16T15:10:52.381Z,99983.59
2022-09-16T15:13:39.208Z,99968.91
2022-09-16T15:16:24.831Z,99976.91
2022-09-16T15:19:16.724Z,99967.72
2022-09-16T15:22:02.539Z,99969.16
2022-09-16T15:24:50.304Z,99963.38
2022-09-16T15:27:35.651Z,99963.47
2022-09-16T15:30:22.570Z,99969.44
2022-09-16T15:33:22.945Z,99966.91
2022-09-16T15:36:31.045Z,99968.22
2022-09-16T15:39:29.697Z,99949.75
2022-09-16T15:42:18.905Z,99944.88
2022-09-16T15:45:12.256Z,99941.75
2022-09-16T15:48:00.127Z,99931.34
2022-09-16T15:50:51.406Z,99915.13
2022-09-16T15:53:44.950Z,99910.16
2022-09-16T15:56:30.079Z,99911.28
2022-09-16T15:59:25.739Z,99909.09
